Time;durP1;ratioP1;P1;durP2;ratioP2;P2;SDS_P1;SDS_P2;PMS_P1;PMS_P2;Temp;Humidity;BMP_temperature;BMP_pressure;BME280_temperature;BME280_humidity;BME280_pressure;Samples;Min_cycle;Max_cycle;Signal;HPM_P1;HPM_P2
2022/03/28 00:01:47;;;;;;;3.35;2.80;;;20.50;48.00;;;;;;5100233;28;20066;-68
2022/03/28 00:04:14;;;;;;;5.57;2.58;;;20.40;47.90;;;;;;5091065;28;20065;-68
2022/03/28 00:06:40;;;;;;;5.18;2.65;;;20.30;48.00;;;;;;5080702;28;20040;-68
2022/03/28 00:09:06;;;;;;;6.70;3.20;;;20.30;48.00;;;;;;5081595;28;20041;-68
2022/03/28 00:11:34;;;;;;;7.00;3.28;;;20.30;48.00;;;;;;5091391;28;20048;-68
2022/03/28 00:14:00;;;;;;;6.00;3.63;;;20.30;48.00;;;;;;5082049;28;20040;-68
2022/03/28 00:16:26;;;;;;;10.80;3.53;;;20.30;48.10;;;;;;5092826;28;20067;-68
2022/03/28 00:18:52;;;;;;;6.53;3.55;;;20.30;48.10;;;;;;5080408;28;20044;-68
2022/03/28 00:21:19;;;;;;;8.88;3.25;;;20.20;48.00;;;;;;5079618;28;20036;-68
2022/03/28 00:23:46;;;;;;;7.32;3.55;;;20.20;48.00;;;;;;5092612;28;20051;-68
2022/03/28 00:26:12;;;;;;;5.55;2.83;;;20.40;47.80;;;;;;5079717;28;20063;-68
2022/03/28 00:28:38;;;;;;;9.15;3.90;;;20.30;47.70;;;;;;5079542;28;20082;-67
2022/03/28 00:31:07;;;;;;;5.60;2.88;;;20.20;47.50;;;;;;5068834;28;20040;-67
2022/03/28 00:33:33;;;;;;;6.28;3.13;;;20.20;47.40;;;;;;5065603;28;20056;-67
2022/03/28 00:35:59;;;;;;;7.38;2.78;;;20.20;47.40;;;;;;5086051;28;20044;-68
2022/03/28 00:38:25;;;;;;;7.20;3.70;;;20.30;47.40;;;;;;5080512;28;20100;-68
2022/03/28 00:40:53;;;;;;;10.13;3.38;;;20.30;47.30;;;;;;5081511;28;20064;-68
2022/03/28 00:43:19;;;;;;;6.53;3.10;;;20.30;47.20;;;;;;5078571;28;20093;-68
2022/03/28 00:45:45;;;;;;;6.68;3.00;;;20.30;47.20;;;;;;5078780;28;20044;-68
2022/03/28 00:48:12;;;;;;;7.68;3.08;;;20.30;47.20;;;;;;5078295;28;20036;-68
2022/03/28 00:50:39;;;;;;;6.63;3.20;;;20.40;47.20;;;;;;5080411;28;20071;-68
2022/03/28 00:53:06;;;;;;;5.43;2.88;;;20.20;47.20;;;;;;5066736;28;20052;-68
2022/03/28 00:55:33;;;;;;;6.25;3.00;;;20.20;47.30;;;;;;5099025;28;20037;-67
2022/03/28 00:57:59;;;;;;;4.30;2.90;;;20.10;47.20;;;;;;5098685;28;20036;-67
2022/03/28 01:00:25;;;;;;;9.98;3.08;;;20.00;47.20;;;;;;5096003;28;20065;-67
2022/03/28 01:02:51;;;;;;;4.15;2.67;;;20.00;47.30;;;;;;5079046;28;20075;-67
2022/03/28 01:05:18;;;;;;;5.38;3.85;;;20.00;47.30;;;;;;5079074;28;20036;-67
2022/03/28 01:07:44;;;;;;;5.35;3.17;;;20.10;47.40;;;;;;5079008;28;20128;-68
2022/03/28 01:10:11;;;;;;;6.82;3.45;;;20.00;47.40;;;;;;5084420;28;20045;-67
2022/03/28 01:12:43;;;;;;;9.48;3.33;;;19.90;47.50;;;;;;5078937;28;20101;-68
2022/03/28 01:15:14;;;;;;;8.77;3.40;;;19.90;47.50;;;;;;5078229;28;20033;-67
2022/03/28 01:20:27;;;;;;;6.85;2.95;;;20.00;47.40;;;;;;5078404;28;20041;-68
2022/03/28 01:22:54;;;;;;;8.52;3.33;;;19.90;47.20;;;;;;5079590;28;20053;-67
2022/03/28 01:25:23;;;;;;;4.90;3.05;;;19.90;47.00;;;;;;5092237;28;20041;-67
2022/03/28 01:27:50;;;;;;;5.30;2.72;;;20.00;46.90;;;;;;5097576;28;20047;-68
2022/03/28 01:30:16;;;;;;;6.50;3.10;;;20.00;46.80;;;;;;5098342;28;20099;-67
2022/03/28 01:32:42;;;;;;;7.28;3.13;;;19.90;46.70;;;;;;5098140;28;20064;-68
2022/03/28 01:35:08;;;;;;;5.63;3.20;;;19.90;46.70;;;;;;5091343;28;20040;-68
2022/03/28 01:37:35;;;;;;;8.13;2.92;;;20.00;46.60;;;;;;5078368;28;20037;-68
2022/03/28 01:40:04;;;;;;;7.78;3.30;;;20.00;46.40;;;;;;5081926;28;20037;-68
2022/03/28 01:42:30;;;;;;;7.18;3.38;;;20.10;46.50;;;;;;5082059;28;20045;-68
2022/03/28 01:44:57;;;;;;;6.30;3.42;;;20.00;46.40;;;;;;5077974;28;20041;-68
2022/03/28 01:47:26;;;;;;;7.47;3.10;;;19.90;46.60;;;;;;5077626;28;20051;-68
2022/03/28 01:49:53;;;;;;;5.35;2.72;;;20.00;46.60;;;;;;5079629;28;20043;-67
2022/03/28 01:52:19;;;;;;;4.80;2.88;;;19.90;46.70;;;;;;5078915;28;20036;-68
2022/03/28 01:54:45;;;;;;;6.35;3.03;;;19.90;46.70;;;;;;5095371;28;20070;-68
2022/03/28 01:57:11;;;;;;;6.50;3.17;;;19.90;46.70;;;;;;5097973;28;20043;-67
2022/03/28 01:59:37;;;;;;;4.75;2.88;;;20.00;46.90;;;;;;5080588;28;20044;-67
2022/03/28 02:02:04;;;;;;;7.30;3.03;;;19.70;46.90;;;;;;5061122;28;20067;-68
2022/03/28 02:04:32;;;;;;;4.50;3.03;;;19.80;46.90;;;;;;5077303;28;20051;-67
2022/03/28 02:06:58;;;;;;;7.82;3.05;;;19.70;47.00;;;;;;5077859;28;20045;-67
2022/03/28 02:09:25;;;;;;;5.35;3.22;;;19.80;47.00;;;;;;5090870;28;20070;-67
2022/03/28 02:11:51;;;;;;;4.57;3.25;;;19.70;47.10;;;;;;5079958;28;20044;-67
2022/03/28 02:14:17;;;;;;;8.63;3.60;;;19.80;47.10;;;;;;5096446;28;20043;-67
2022/03/28 02:16:43;;;;;;;6.20;2.58;;;19.70;46.70;;;;;;5095973;28;20072;-68
2022/03/28 02:19:09;;;;;;;8.90;3.63;;;19.80;46.60;;;;;;5097614;28;20716;-68
2022/03/28 02:21:36;;;;;;;4.32;2.70;;;19.80;46.40;;;;;;5084268;28;20043;-68
2022/03/28 02:24:02;;;;;;;6.82;3.05;;;19.70;46.20;;;;;;5085161;28;20047;-68
2022/03/28 02:26:28;;;;;;;5.85;3.58;;;19.80;46.10;;;;;;5097508;28;20049;-67
2022/03/28 02:28:54;;;;;;;8.57;3.40;;;19.80;46.10;;;;;;5097561;28;20049;-67
2022/03/28 02:31:20;;;;;;;6.97;3.30;;;19.80;46.00;;;;;;5093503;28;20047;-68
2022/03/28 02:33:46;;;;;;;5.47;2.83;;;19.80;45.90;;;;;;5057219;28;20060;-68
2022/03/28 02:36:12;;;;;;;9.90;3.85;;;19.80;45.90;;;;;;5059008;28;20061;-68
2022/03/28 02:38:38;;;;;;;5.82;3.58;;;19.90;46.00;;;;;;5058119;28;20029;-68
2022/03/28 02:41:05;;;;;;;4.22;2.40;;;19.80;46.00;;;;;;5023221;28;20060;-67
2022/03/28 02:43:31;;;;;;;8.50;3.65;;;19.80;46.10;;;;;;5057065;28;20041;-67
2022/03/28 02:45:57;;;;;;;6.05;3.45;;;19.70;46.10;;;;;;5062723;28;20047;-67
2022/03/28 02:48:23;;;;;;;6.90;3.78;;;19.70;46.20;;;;;;5076499;28;20049;-68
2022/03/28 02:50:50;;;;;;;6.07;2.45;;;19.70;46.30;;;;;;5062910;28;20049;-68
2022/03/28 02:53:16;;;;;;;5.50;3.53;;;19.70;46.40;;;;;;5061821;28;20053;-68
2022/03/28 02:55:43;;;;;;;6.07;2.70;;;19.60;46.40;;;;;;5065759;28;20037;-67
2022/03/28 02:58:09;;;;;;;5.65;2.97;;;19.60;46.50;;;;;;5039077;28;20033;-67
2022/03/28 03:00:35;;;;;;;7.15;2.95;;;19.70;46.70;;;;;;5059010;28;20064;-67
2022/03/28 03:03:01;;;;;;;7.03;3.00;;;19.60;46.60;;;;;;5076657;28;20055;-68
2022/03/28 03:05:27;;;;;;;7.22;3.15;;;19.60;46.70;;;;;;5073589;28;20062;-67
2022/03/28 03:07:53;;;;;;;4.63;3.00;;;19.60;46.40;;;;;;5071486;28;20041;-67
2022/03/28 03:10:20;;;;;;;7.38;5.05;;;19.70;46.20;;;;;;5069245;28;20048;-67
2022/03/28 03:12:46;;;;;;;11.13;4.70;;;19.60;45.90;;;;;;5076535;28;20048;-67
2022/03/28 03:15:12;;;;;;;6.20;3.17;;;19.70;45.90;;;;;;5067051;28;20041;-67
2022/03/28 03:17:38;;;;;;;8.80;5.72;;;19.70;45.80;;;;;;5069801;28;20068;-67
2022/03/28 03:20:06;;;;;;;8.52;4.93;;;19.70;45.70;;;;;;5076544;28;20037;-67
2022/03/28 03:22:33;;;;;;;5.60;4.20;;;19.60;45.40;;;;;;5057268;28;20037;-68
2022/03/28 03:24:59;;;;;;;7.72;4.57;;;19.70;45.50;;;;;;5065094;28;20049;-67
2022/03/28 03:27:25;;;;;;;8.73;4.32;;;19.70;45.40;;;;;;5055872;28;20049;-67
2022/03/28 03:29:52;;;;;;;11.68;5.10;;;19.70;45.50;;;;;;5064536;28;20079;-67
2022/03/28 03:32:19;;;;;;;8.07;4.75;;;19.80;45.60;;;;;;5077855;28;20044;-67
2022/03/28 03:34:44;;;;;;;8.60;4.55;;;19.60;45.50;;;;;;5081322;28;20064;-68
2022/03/28 03:37:10;;;;;;;7.63;4.15;;;19.60;45.70;;;;;;5086514;28;20060;-67
2022/03/28 03:39:37;;;;;;;9.15;4.03;;;19.70;45.80;;;;;;5082715;28;20041;-67
2022/03/28 03:42:04;;;;;;;4.68;3.03;;;19.70;46.00;;;;;;5077156;28;20140;-68
2022/03/28 03:44:30;;;;;;;7.35;3.58;;;19.60;46.00;;;;;;5076905;28;20074;-67
2022/03/28 03:46:56;;;;;;;9.63;4.70;;;19.60;46.00;;;;;;5087295;28;20100;-67
2022/03/28 03:49:22;;;;;;;16.38;6.43;;;19.70;46.10;;;;;;5096636;28;20044;-67
2022/03/28 03:51:48;;;;;;;13.57;8.63;;;19.60;46.10;;;;;;5096282;28;20048;-67
2022/03/28 03:54:14;;;;;;;10.73;5.88;;;19.50;46.30;;;;;;5065732;28;20041;-67
2022/03/28 03:56:41;;;;;;;7.72;4.38;;;19.60;46.50;;;;;;5062002;28;20055;-67
2022/03/28 03:59:07;;;;;;;14.65;6.00;;;19.60;46.70;;;;;;5095408;28;20040;-67
2022/03/28 04:01:34;;;;;;;21.25;8.82;;;19.50;46.60;;;;;;5092413;28;20044;-67
2022/03/28 04:04:00;;;;;;;25.77;9.13;;;19.50;46.10;;;;;;5093083;28;20070;-68
2022/03/28 04:06:26;;;;;;;13.10;5.53;;;19.50;46.00;;;;;;5074782;28;20032;-67
2022/03/28 04:08:52;;;;;;;12.68;7.53;;;19.60;45.80;;;;;;5081904;28;20045;-68
2022/03/28 04:11:19;;;;;;;10.63;5.78;;;19.50;45.90;;;;;;5077128;28;20053;-68
2022/03/28 04:13:45;;;;;;;9.43;5.45;;;19.60;45.90;;;;;;5081704;28;20043;-67
2022/03/28 04:16:11;;;;;;;6.88;4.68;;;19.50;46.00;;;;;;5088669;28;20036;-67
2022/03/28 04:18:37;;;;;;;5.90;4.15;;;19.50;46.10;;;;;;5077595;28;20045;-67
2022/03/28 04:21:03;;;;;;;6.95;4.15;;;19.50;45.80;;;;;;5077614;28;20045;-68
2022/03/28 04:23:29;;;;;;;10.75;4.18;;;19.50;45.60;;;;;;5079970;28;20056;-67
2022/03/28 04:25:56;;;;;;;9.95;3.55;;;19.50;45.50;;;;;;5088137;28;20041;-67
2022/03/28 04:28:22;;;;;;;8.02;3.25;;;19.60;45.30;;;;;;5087455;28;20112;-67
2022/03/28 04:30:50;;;;;;;5.00;3.58;;;19.70;45.20;;;;;;5083987;28;20048;-67
2022/03/28 04:33:17;;;;;;;6.20;3.75;;;19.70;45.20;;;;;;5077903;28;20088;-67
2022/03/28 04:35:44;;;;;;;5.78;3.70;;;19.60;45.10;;;;;;5085314;28;20040;-67
2022/03/28 04:38:10;;;;;;;13.70;4.22;;;19.60;45.10;;;;;;5073987;28;20056;-67
2022/03/28 04:40:37;;;;;;;6.20;4.13;;;19.60;45.20;;;;;;5081291;28;20041;-67
2022/03/28 04:43:04;;;;;;;8.02;4.07;;;19.70;45.40;;;;;;5077790;28;20071;-67
2022/03/28 04:45:31;;;;;;;15.15;5.60;;;19.60;45.40;;;;;;5078860;28;20049;-67
2022/03/28 04:47:58;;;;;;;17.35;6.35;;;19.60;45.50;;;;;;5061372;28;20116;-67
2022/03/28 04:50:25;;;;;;;13.05;6.38;;;19.50;45.60;;;;;;5081859;28;20109;-67
2022/03/28 04:52:51;;;;;;;13.07;6.85;;;19.60;45.70;;;;;;5091251;28;20075;-67
2022/03/28 04:55:18;;;;;;;14.43;5.47;;;19.60;45.80;;;;;;5080252;28;20105;-67
2022/03/28 04:57:44;;;;;;;18.88;6.20;;;19.60;45.80;;;;;;5078538;28;20158;-68
2022/03/28 05:00:12;;;;;;;14.15;6.82;;;19.50;45.80;;;;;;5081221;28;20070;-68
2022/03/28 05:02:38;;;;;;;18.52;6.82;;;19.50;45.90;;;;;;5079508;28;20083;-67
2022/03/28 05:05:05;;;;;;;16.05;6.32;;;19.50;46.00;;;;;;5082848;28;20041;-67
2022/03/28 05:07:31;;;;;;;22.52;7.78;;;19.50;46.00;;;;;;5093721;28;20049;-67
2022/03/28 05:10:01;;;;;;;20.95;7.30;;;19.50;48.10;;;;;;5094342;28;20078;-67
2022/03/28 05:12:27;;;;;;;12.25;6.28;;;19.60;49.10;;;;;;5093582;28;20052;-67
2022/03/28 05:14:55;;;;;;;14.48;5.97;;;19.50;39.80;;;;;;5096357;28;20036;-67
2022/03/28 05:17:27;;;;;;;5.90;3.63;;;19.50;40.20;;;;;;5091199;28;20066;-67
2022/03/28 05:19:55;;;;;;;9.55;4.20;;;19.60;36.60;;;;;;5096373;28;20051;-67
2022/03/28 05:22:22;;;;;;;10.63;4.43;;;19.60;35.60;;;;;;5092714;28;20064;-67
2022/03/28 05:24:51;;;;;;;7.25;3.50;;;19.70;34.90;;;;;;5092442;28;20104;-67
2022/03/28 05:27:17;;;;;;;6.72;4.10;;;19.90;34.90;;;;;;5096835;28;20048;-67
2022/03/28 05:29:45;;;;;;;11.90;4.43;;;19.90;33.10;;;;;;5088357;28;20132;-68
2022/03/28 05:32:11;;;;;;;7.95;4.03;;;20.20;33.00;;;;;;5080975;28;20085;-67
2022/03/28 05:34:38;;;;;;;6.05;3.25;;;20.10;33.50;;;;;;5092630;28;20045;-68
2022/03/28 05:37:15;;;;;;;8.90;4.53;;;20.40;40.80;;;;;;5086713;28;20048;-69
2022/03/28 05:39:47;;;;;;;5.78;3.80;;;20.50;39.80;;;;;;5090066;28;20151;-68
2022/03/28 05:42:14;;;;;;;10.23;5.38;;;20.70;41.10;;;;;;5089945;28;20048;-68
2022/03/28 05:44:46;;;;;;;8.55;4.20;;;21.00;37.90;;;;;;5084177;28;20044;-67
2022/03/28 05:47:15;;;;;;;11.57;4.95;;;20.80;42.00;;;;;;5094553;28;20040;-67
2022/03/28 05:49:42;;;;;;;13.20;6.93;;;20.90;36.30;;;;;;5096824;28;20052;-67
2022/03/28 05:52:09;;;;;;;20.60;11.48;;;21.00;37.80;;;;;;5093713;28;20055;-67
2022/03/28 05:54:35;;;;;;;20.92;11.95;;;21.10;36.40;;;;;;5087656;28;20041;-69
2022/03/28 05:57:02;;;;;;;9.75;5.65;;;21.10;34.80;;;;;;5077241;28;20061;-67
2022/03/28 05:59:29;;;;;;;24.15;11.15;;;21.10;38.20;;;;;;5093651;28;20046;-70
2022/03/28 06:01:55;;;;;;;32.63;12.35;;;21.20;48.10;;;;;;5096917;28;20044;-67
2022/03/28 06:04:21;;;;;;;21.63;11.05;;;21.20;50.30;;;;;;5082162;28;20057;-67
2022/03/28 06:06:47;;;;;;;22.60;11.38;;;21.20;50.70;;;;;;5082627;28;20036;-69
2022/03/28 06:09:14;;;;;;;20.58;10.15;;;21.10;55.30;;;;;;5091627;28;20040;-69
2022/03/28 06:11:40;;;;;;;22.25;10.07;;;21.00;55.30;;;;;;5081666;28;20036;-69
2022/03/28 06:14:06;;;;;;;19.77;10.30;;;21.00;54.20;;;;;;5089240;28;20040;-69
2022/03/28 06:16:32;;;;;;;22.38;10.65;;;21.00;53.90;;;;;;5096575;28;20040;-69
2022/03/28 06:18:58;;;;;;;18.38;8.70;;;20.90;54.10;;;;;;5091526;28;20093;-69
2022/03/28 06:21:25;;;;;;;20.30;10.20;;;20.90;54.10;;;;;;5087611;28;20119;-68
2022/03/28 06:23:51;;;;;;;19.27;9.77;;;20.90;54.30;;;;;;5096642;28;20115;-68
2022/03/28 06:26:17;;;;;;;19.00;9.43;;;20.90;54.40;;;;;;5089793;28;20036;-68
2022/03/28 06:28:46;;;;;;;17.92;9.70;;;20.90;54.60;;;;;;5089200;28;20045;-69
2022/03/28 06:31:13;;;;;;;17.98;9.90;;;20.90;54.70;;;;;;5075620;28;20044;-69
2022/03/28 06:33:38;;;;;;;19.13;9.35;;;20.90;54.80;;;;;;5081346;28;20048;-68
2022/03/28 06:36:05;;;;;;;13.73;8.20;;;20.90;54.60;;;;;;5084612;28;20044;-68
2022/03/28 06:38:31;;;;;;;17.73;7.20;;;21.00;54.80;;;;;;5077133;28;20056;-68
2022/03/28 06:40:58;;;;;;;17.80;7.55;;;21.00;54.80;;;;;;5077126;28;20036;-68
2022/03/28 06:43:24;;;;;;;11.68;7.20;;;21.00;55.10;;;;;;5076244;28;20051;-67
2022/03/28 06:45:51;;;;;;;15.60;6.45;;;20.90;55.20;;;;;;5082360;28;20048;-69
2022/03/28 06:48:19;;;;;;;10.98;5.63;;;21.00;55.40;;;;;;5087927;28;20053;-69
2022/03/28 06:50:45;;;;;;;15.75;6.60;;;21.00;56.00;;;;;;5083895;28;20076;-68
2022/03/28 06:53:12;;;;;;;9.48;6.18;;;21.30;59.70;;;;;;5083705;28;20068;-68
2022/03/28 06:55:38;;;;;;;15.02;5.93;;;21.80;58.60;;;;;;5077909;28;20044;-69
2022/03/28 06:58:04;;;;;;;10.05;6.13;;;22.30;58.10;;;;;;5078933;28;20045;-67
2022/03/28 07:00:33;;;;;;;8.98;5.45;;;22.60;58.30;;;;;;5076871;28;20048;-67
2022/03/28 07:02:59;;;;;;;9.65;5.13;;;22.80;61.20;;;;;;5082285;28;20045;-68
2022/03/28 07:05:25;;;;;;;15.85;5.32;;;23.00;56.40;;;;;;5082543;28;20104;-69
2022/03/28 07:07:53;;;;;;;12.35;4.53;;;22.70;53.70;;;;;;5058924;28;20049;-69
2022/03/28 07:10:20;;;;;;;5.47;3.30;;;22.70;53.60;;;;;;5075795;28;20040;-69
2022/03/28 07:12:47;;;;;;;5.32;2.90;;;22.50;53.10;;;;;;5066660;28;20047;-68
2022/03/28 07:15:14;;;;;;;6.30;2.40;;;22.60;53.00;;;;;;5080330;28;20072;-68
2022/03/28 07:17:46;;;;;;;5.30;2.47;;;22.50;55.70;;;;;;5064084;28;20068;-66
2022/03/28 07:20:13;;;;;;;4.53;1.75;;;22.50;54.90;;;;;;5080524;28;20066;-68
2022/03/28 07:22:39;;;;;;;2.20;1.88;;;22.60;54.00;;;;;;5086142;28;20044;-68
2022/03/28 07:25:06;;;;;;;8.20;2.95;;;22.60;53.20;;;;;;5075697;28;20033;-68
2022/03/28 07:27:39;;;;;;;3.63;2.33;;;22.60;52.60;;;;;;5075191;28;20104;-69
2022/03/28 07:30:07;;;;;;;3.05;1.90;;;22.60;52.20;;;;;;5075000;28;20041;-69
2022/03/28 07:32:35;;;;;;;4.97;2.67;;;22.70;52.00;;;;;;5055187;28;20072;-69
2022/03/28 07:35:02;;;;;;;4.32;2.33;;;22.50;51.60;;;;;;5064625;28;20061;-68
2022/03/28 07:37:30;;;;;;;4.03;2.70;;;22.70;52.00;;;;;;5069628;28;20164;-68
2022/03/28 07:39:57;;;;;;;5.10;2.75;;;22.50;51.20;;;;;;5059951;28;20049;-69
2022/03/28 07:42:23;;;;;;;3.75;2.38;;;22.60;51.30;;;;;;5072442;28;20051;-69
2022/03/28 07:44:49;;;;;;;5.22;3.13;;;22.60;51.70;;;;;;5074679;28;20037;-69
2022/03/28 07:47:15;;;;;;;5.07;2.50;;;22.70;51.60;;;;;;5075748;28;20085;-69
2022/03/28 07:49:42;;;;;;;7.70;3.17;;;22.60;51.30;;;;;;5075334;28;20041;-68
2022/03/28 07:52:08;;;;;;;9.50;3.40;;;22.60;50.90;;;;;;5074000;28;20049;-68
2022/03/28 07:54:36;;;;;;;6.43;3.15;;;22.60;50.10;;;;;;5075617;28;20059;-68
2022/03/28 07:57:03;;;;;;;5.53;2.85;;;22.50;50.80;;;;;;5069719;28;20600;-68
2022/03/28 07:59:29;;;;;;;5.05;3.15;;;22.40;51.10;;;;;;5065026;28;20033;-69
2022/03/28 08:01:55;;;;;;;6.53;2.28;;;22.50;50.90;;;;;;5075200;28;20048;-67
2022/03/28 08:04:21;;;;;;;4.35;2.58;;;22.50;51.30;;;;;;5072313;28;20122;-68
2022/03/28 08:06:47;;;;;;;6.10;2.65;;;22.50;51.00;;;;;;5073275;28;20039;-67
2022/03/28 08:09:14;;;;;;;5.50;2.20;;;22.50;50.50;;;;;;5074626;28;20037;-68
2022/03/28 08:11:42;;;;;;;5.90;2.55;;;22.40;51.10;;;;;;5057166;28;20680;-68
2022/03/28 08:14:08;;;;;;;4.18;2.47;;;22.50;51.00;;;;;;5057973;28;20060;-68
2022/03/28 08:16:34;;;;;;;8.40;2.47;;;22.40;50.90;;;;;;5059893;28;20057;-67
2022/03/28 08:19:01;;;;;;;7.78;2.28;;;22.30;50.60;;;;;;5078959;28;20033;-68
2022/03/28 08:21:28;;;;;;;4.18;2.38;;;22.50;50.60;;;;;;5061605;28;20072;-68
2022/03/28 08:23:55;;;;;;;4.63;2.67;;;22.30;50.00;;;;;;5057934;28;20052;-68
2022/03/28 08:26:21;;;;;;;4.40;3.05;;;22.40;50.40;;;;;;5076106;28;20029;-68
2022/03/28 08:28:47;;;;;;;3.33;2.15;;;22.40;50.40;;;;;;5053688;28;20044;-68
2022/03/28 08:31:13;;;;;;;2.78;2.03;;;22.50;50.40;;;;;;5073322;28;20066;-74
2022/03/28 08:33:40;;;;;;;0.45;0.45;;;22.40;50.40;;;;;;5082277;28;20048;-67
2022/03/28 08:36:08;;;;;;;10.00;2.92;;;22.50;50.50;;;;;;5084346;28;20060;-67
2022/03/28 08:38:35;;;;;;;6.70;2.65;;;22.40;50.70;;;;;;5081814;28;20044;-67
2022/03/28 08:41:02;;;;;;;5.75;3.05;;;22.50;50.50;;;;;;5060824;28;20036;-68
2022/03/28 08:43:29;;;;;;;2.90;2.00;;;22.50;46.60;;;;;;5086968;28;20105;-68
2022/03/28 08:45:57;;;;;;;3.20;1.60;;;22.40;48.50;;;;;;5094148;28;20041;-67
2022/03/28 08:48:23;;;;;;;10.23;3.78;;;22.50;48.10;;;;;;5092874;28;20044;-68
2022/03/28 08:50:50;;;;;;;3.65;1.77;;;22.30;47.40;;;;;;5098487;28;20048;-68
2022/03/28 08:53:17;;;;;;;7.10;4.18;;;22.30;47.40;;;;;;5098377;28;20055;-65
2022/03/28 08:55:44;;;;;;;1.73;1.58;;;22.50;47.40;;;;;;5096473;28;20032;-68
2022/03/28 08:58:11;;;;;;;12.50;5.82;;;22.40;47.60;;;;;;5081645;28;20059;-68
2022/03/28 09:00:38;;;;;;;12.00;4.28;;;22.40;39.60;;;;;;5085926;28;20051;-71
2022/03/28 09:03:04;;;;;;;2.25;0.93;;;22.40;47.10;;;;;;5090344;28;20053;-65
2022/03/28 09:05:37;;;;;;;7.35;3.72;;;22.30;46.30;;;;;;5089202;28;20072;-69
2022/03/28 09:08:05;;;;;;;1.42;1.40;;;22.40;43.50;;;;;;5075054;28;20036;-72
2022/03/28 09:10:34;;;;;;;5.60;2.97;;;22.40;41.50;;;;;;5086377;28;20040;-73
2022/03/28 09:13:01;;;;;;;1.00;1.00;;;22.40;40.50;;;;;;5092375;28;20044;-70
2022/03/28 09:15:55;;;;;;;8.15;4.43;;;22.40;38.30;;;;;;5084289;28;20097;-67
2022/03/28 09:18:27;;;;;;;7.13;2.50;;;22.40;36.60;;;;;;5081606;28;20036;-67
2022/03/28 09:21:07;;;;;;;3.70;2.40;;;22.50;36.10;;;;;;5088174;28;20048;-67
2022/03/28 09:23:41;;;;;;;8.57;4.18;;;22.50;36.50;;;;;;5096859;28;20044;-68
2022/03/28 09:26:18;;;;;;;6.57;3.17;;;22.60;37.00;;;;;;5092617;28;20045;-66
2022/03/28 09:28:52;;;;;;;9.70;4.20;;;22.60;37.60;;;;;;5077000;28;20088;-67
2022/03/28 09:31:24;;;;;;;11.82;4.60;;;22.60;38.20;;;;;;5083541;28;20040;-67
2022/03/28 09:34:00;;;;;;;6.78;4.47;;;22.60;39.20;;;;;;5089178;28;20051;-67
2022/03/28 09:36:38;;;;;;;6.65;3.85;;;22.60;40.90;;;;;;5077976;28;20045;-67
2022/03/28 09:39:06;;;;;;;7.13;4.18;;;22.60;42.00;;;;;;5066526;28;20043;-67
2022/03/28 09:41:33;;;;;;;9.70;4.68;;;22.60;42.70;;;;;;5060124;28;20051;-66
2022/03/28 09:43:59;;;;;;;8.45;4.80;;;22.50;43.80;;;;;;5060489;28;20048;-66
2022/03/28 09:46:28;;;;;;;6.00;4.15;;;22.50;45.10;;;;;;5078230;28;20040;-67
2022/03/28 09:48:59;;;;;;;11.70;3.95;;;22.50;45.80;;;;;;5086171;28;20099;-65
2022/03/28 09:51:28;;;;;;;5.80;4.50;;;22.50;46.10;;;;;;5096159;28;20044;-67
2022/03/28 09:53:54;;;;;;;8.77;4.18;;;22.60;41.50;;;;;;5094833;28;20036;-66
2022/03/28 09:56:21;;;;;;;7.38;3.35;;;22.50;36.70;;;;;;5062513;28;20064;-66
2022/03/28 09:58:59;;;;;;;5.53;2.40;;;22.50;34.40;;;;;;5093563;28;20072;-67
2022/03/28 10:01:32;;;;;;;6.28;3.25;;;22.40;37.10;;;;;;5080970;28;20112;-66
2022/03/28 10:04:05;;;;;;;3.13;2.03;;;22.60;40.10;;;;;;5064803;28;20075;-65
2022/03/28 10:06:32;;;;;;;;;;;22.70;32.40;;;;;;5077590;28;20041;-66
2022/03/28 10:08:59;;;;;;;3.85;2.90;;;22.70;33.10;;;;;;5083314;28;19931;-67
2022/03/28 10:11:26;;;;;;;3.97;2.72;;;22.70;36.30;;;;;;5074625;28;20064;-67
2022/03/28 10:13:53;;;;;;;7.85;3.60;;;22.70;33.60;;;;;;5087462;28;20037;-69
2022/03/28 10:16:19;;;;;;;7.10;3.72;;;22.90;41.10;;;;;;5080359;28;20105;-66
2022/03/28 10:18:47;;;;;;;5.95;3.63;;;23.00;37.40;;;;;;5081189;28;20041;-67
2022/03/28 10:21:26;;;;;;;6.00;3.60;;;23.00;34.80;;;;;;5082222;28;20113;-67
2022/03/28 10:24:10;;;;;;;5.07;3.25;;;23.10;43.60;;;;;;5089053;28;20041;-67
2022/03/28 10:26:42;;;;;;;4.70;2.97;;;23.30;44.20;;;;;;5091813;28;20128;-66
2022/03/28 10:29:11;;;;;;;4.40;2.78;;;23.50;34.40;;;;;;5096732;28;20050;-68
2022/03/28 10:31:56;;;;;;;7.30;3.60;;;23.40;34.30;;;;;;5082599;28;20068;-67
2022/03/28 10:34:40;;;;;;;4.13;2.78;;;23.40;31.10;;;;;;5094022;28;20040;-68
2022/03/28 10:37:31;;;;;;;6.80;2.95;;;23.30;30.30;;;;;;5090045;28;20044;-66
2022/03/28 10:40:19;;;;;;;4.80;2.40;;;23.50;35.60;;;;;;5093943;28;20036;-67
2022/03/28 10:42:49;;;;;;;4.80;2.42;;;23.80;38.60;;;;;;5094380;28;20049;-67
2022/03/28 10:45:19;;;;;;;4.18;2.47;;;24.00;36.00;;;;;;5062738;28;20044;-68
2022/03/28 10:47:54;;;;;;;7.30;2.53;;;24.10;35.60;;;;;;5091890;28;20091;-67
2022/03/28 10:50:24;;;;;;;8.77;3.53;;;23.90;34.70;;;;;;5078940;28;20055;-68
2022/03/28 10:53:37;;;;;;;5.15;2.63;;;23.90;29.30;;;;;;5076704;28;20086;-67
2022/03/28 10:56:28;;;;;;;4.70;2.00;;;23.80;30.30;;;;;;5064971;28;20058;-67
2022/03/28 10:59:17;;;;;;;5.15;2.05;;;23.70;28.90;;;;;;5084925;28;20042;-66
2022/03/28 11:01:46;;;;;;;5.82;2.13;;;23.60;29.80;;;;;;5078957;28;20093;-67
2022/03/28 11:04:12;;;;;;;5.25;2.15;;;23.60;28.20;;;;;;5078666;28;20394;-67
2022/03/28 11:06:52;;;;;;;4.15;2.42;;;23.50;28.70;;;;;;5086681;28;20044;-67
2022/03/28 11:09:54;;;;;;;4.22;2.90;;;23.50;29.30;;;;;;5087125;28;20045;-66
2022/03/28 11:12:30;;;;;;;3.38;2.53;;;23.30;29.20;;;;;;5075867;28;20037;-66
2022/03/28 11:15:18;;;;;;;4.28;2.30;;;23.30;30.00;;;;;;5091362;28;20044;-66
2022/03/28 11:18:11;;;;;;;3.17;2.15;;;23.30;29.50;;;;;;5079693;28;20073;-65
2022/03/28 11:20:52;;;;;;;3.88;2.40;;;23.20;28.80;;;;;;5077186;28;20072;-66
2022/03/28 11:23:21;;;;;;;5.18;2.83;;;23.20;32.30;;;;;;5081458;28;20052;-67
2022/03/28 11:25:57;;;;;;;4.47;2.88;;;23.30;41.70;;;;;;5076601;28;20045;-66
2022/03/28 11:28:23;;;;;;;5.25;2.78;;;23.50;42.40;;;;;;5081164;28;20523;-66
2022/03/28 11:31:02;;;;;;;6.45;2.83;;;23.50;42.90;;;;;;5067246;28;20064;-68
2022/03/28 11:33:36;;;;;;;4.35;2.88;;;23.50;43.30;;;;;;5087948;28;20055;-66
2022/03/28 11:36:11;;;;;;;6.03;3.17;;;23.50;43.60;;;;;;5088600;28;20029;-67
2022/03/28 11:38:40;;;;;;;5.90;3.22;;;23.50;43.60;;;;;;5079091;28;20064;-68
2022/03/28 11:41:09;;;;;;;5.25;2.97;;;23.50;43.30;;;;;;5092560;28;20052;-68
2022/03/28 11:43:37;;;;;;;6.43;3.30;;;23.40;43.40;;;;;;5087012;28;20075;-67
2022/03/28 11:46:24;;;;;;;4.32;3.08;;;23.30;43.50;;;;;;5076473;28;20044;-67
2022/03/28 11:48:51;;;;;;;5.32;2.15;;;23.40;47.20;;;;;;5075738;28;20041;-67
2022/03/28 11:51:17;;;;;;;6.00;3.03;;;23.40;50.00;;;;;;5076898;28;20039;-68
2022/03/28 11:53:44;;;;;;;6.50;3.25;;;23.40;45.20;;;;;;5097837;28;20087;-68
2022/03/28 11:56:10;;;;;;;9.07;2.65;;;23.30;42.00;;;;;;5082501;28;20037;-67
2022/03/28 11:58:39;;;;;;;2.75;1.98;;;23.30;48.30;;;;;;5100012;28;20050;-67
2022/03/28 12:01:10;;;;;;;8.40;3.05;;;23.30;48.20;;;;;;5096091;28;20040;-68
2022/03/28 12:03:47;;;;;;;6.38;2.45;;;23.30;47.80;;;;;;5080316;28;20048;-67
2022/03/28 12:06:29;;;;;;;8.82;2.58;;;23.30;47.60;;;;;;5090011;28;20049;-67
2022/03/28 12:08:56;;;;;;;6.93;2.97;;;23.30;47.40;;;;;;5099686;28;20044;-67
2022/03/28 12:11:24;;;;;;;3.60;1.75;;;23.30;46.20;;;;;;5099698;28;20044;-68
2022/03/28 12:13:52;;;;;;;7.70;2.63;;;23.30;47.00;;;;;;5099154;28;20036;-66
2022/03/28 12:16:19;;;;;;;4.13;2.45;;;23.40;46.90;;;;;;5093868;28;20048;-67
2022/03/28 12:18:45;;;;;;;6.38;2.25;;;23.30;46.90;;;;;;5092629;28;20071;-67
2022/03/28 12:21:12;;;;;;;3.28;1.65;;;23.40;46.50;;;;;;5084843;28;20063;-67
2022/03/28 12:23:38;;;;;;;4.72;2.63;;;23.30;46.10;;;;;;5079460;28;20037;-67
2022/03/28 12:26:05;;;;;;;2.40;1.85;;;23.30;45.00;;;;;;5079287;28;20073;-67
2022/03/28 12:28:34;;;;;;;3.83;2.25;;;23.30;44.30;;;;;;5098902;28;20040;-68
2022/03/28 12:31:03;;;;;;;3.45;2.30;;;23.20;46.10;;;;;;5099100;28;20109;-68
2022/03/28 12:33:44;;;;;;;2.92;1.67;;;23.30;45.70;;;;;;5097200;28;20055;-68
2022/03/28 12:36:21;;;;;;;4.97;2.25;;;23.30;46.40;;;;;;5079140;28;20041;-67
2022/03/28 12:38:59;;;;;;;2.65;1.98;;;23.20;46.50;;;;;;5098443;28;20027;-68
2022/03/28 12:41:27;;;;;;;2.35;1.88;;;23.30;46.70;;;;;;5099061;28;20037;-68
2022/03/28 12:43:53;;;;;;;1.27;0.82;;;23.20;46.70;;;;;;5098606;28;20033;-67
2022/03/28 12:46:21;;;;;;;2.83;1.95;;;23.20;46.90;;;;;;5098718;28;20762;-68
2022/03/28 12:48:51;;;;;;;4.53;2.40;;;23.20;46.80;;;;;;5098976;28;20051;-68
2022/03/28 12:51:26;;;;;;;3.42;2.22;;;23.20;47.00;;;;;;5078671;28;20056;-67
2022/03/28 12:54:08;;;;;;;2.97;2.10;;;23.20;47.00;;;;;;5080707;28;20056;-68
2022/03/28 12:56:51;;;;;;;4.10;2.50;;;23.10;47.00;;;;;;5098987;28;20058;-68